sensor_id;sensor_type;location;lat;lon;timestamp;pressure;altitude;pressure_sealevel;temperature;humidity
25944;BME280;13742;49.306;8.636;2023-11-22T00:00:10;101031.48;;;7.29;100.00
25944;BME280;13742;49.306;8.636;2023-11-22T00:01:07;101026.65;;;7.30;100.00
25944;BME280;13742;49.306;8.636;2023-11-22T00:02:06;101035.14;;;7.32;100.00
25944;BME280;13742;49.306;8.636;2023-11-22T00:03:06;101034.44;;;7.35;100.00
25944;BME280;13742;49.306;8.636;2023-11-22T00:04:06;101040.78;;;7.26;100.00
25944;BME280;13742;49.306;8.636;2023-11-22T00:05:06;101043.06;;;7.26;100.00
25944;BME280;13742;49.306;8.636;2023-11-22T00:06:07;101043.38;;;7.27;100.00
25944;BME280;13742;49.306;8.636;2023-11-22T00:07:06;101044.20;;;7.19;100.00
25944;BME280;13742;49.306;8.636;2023-11-22T00:08:06;101047.82;;;7.19;100.00
25944;BME280;13742;49.306;8.636;2023-11-22T00:09:07;101044.47;;;7.20;100.00
25944;BME280;13742;49.306;8.636;2023-11-22T00:10:08;101043.97;;;7.22;100.00
25944;BME280;13742;49.306;8.636;2023-11-22T00:11:06;101046.36;;;7.26;100.00
25944;BME280;13742;49.306;8.636;2023-11-22T00:12:06;101047.60;;;7.27;100.00
25944;BME280;13742;49.306;8.636;2023-11-22T00:13:06;101049.11;;;7.22;100.00
25944;BME280;13742;49.306;8.636;2023-11-22T00:14:06;101049.65;;;7.18;100.00
25944;BME280;13742;49.306;8.636;2023-11-22T00:15:07;101052.16;;;7.12;100.00
25944;BME280;13742;49.306;8.636;2023-11-22T00:16:08;101052.16;;;7.12;100.00
25944;BME280;13742;49.306;8.636;2023-11-22T00:17:06;101054.68;;;7.11;100.00
25944;BME280;13742;49.306;8.636;2023-11-22T00:18:06;101055.21;;;7.09;100.00
25944;BME280;13742;49.306;8.636;2023-11-22T00:19:06;101061.47;;;7.06;100.00
25944;BME280;13742;49.306;8.636;2023-11-22T00:20:08;101063.96;;;7.08;100.00
25944;BME280;13742;49.306;8.636;2023-11-22T00:21:06;101060.34;;;7.08;100.00
25944;BME280;13742;49.306;8.636;2023-11-22T00:22:13;101067.27;;;7.03;100.00
25944;BME280;13742;49.306;8.636;2023-11-22T00:23:06;101068.28;;;7.08;100.00
25944;BME280;13742;49.306;8.636;2023-11-22T00:24:07;101069.07;;;7.12;100.00
25944;BME280;13742;49.306;8.636;2023-11-22T00:25:07;101069.66;;;7.07;100.00
25944;BME280;13742;49.306;8.636;2023-11-22T00:26:07;101068.97;;;7.04;100.00
25944;BME280;13742;49.306;8.636;2023-11-22T00:27:07;101071.02;;;7.03;100.00
25944;BME280;13742;49.306;8.636;2023-11-22T00:28:06;101073.73;;;7.02;100.00
25944;BME280;13742;49.306;8.636;2023-11-22T00:29:06;101073.64;;;6.94;100.00
25944;BME280;13742;49.306;8.636;2023-11-22T00:30:07;101075.50;;;6.91;100.00
25944;BME280;13742;49.306;8.636;2023-11-22T00:31:06;101073.77;;;6.92;100.00
25944;BME280;13742;49.306;8.636;2023-11-22T00:32:07;101076.59;;;6.94;100.00
25944;BME280;13742;49.306;8.636;2023-11-22T00:33:06;101074.67;;;6.91;100.00
25944;BME280;13742;49.306;8.636;2023-11-22T00:34:06;101077.62;;;6.94;100.00
25944;BME280;13742;49.306;8.636;2023-11-22T00:35:07;101081.02;;;6.88;100.00
25944;BME280;13742;49.306;8.636;2023-11-22T00:36:08;101081.27;;;6.88;100.00
25944;BME280;13742;49.306;8.636;2023-11-22T00:37:06;101077.80;;;6.85;100.00
25944;BME280;13742;49.306;8.636;2023-11-22T00:38:06;101087.14;;;6.87;100.00
25944;BME280;13742;49.306;8.636;2023-11-22T00:39:09;101086.23;;;6.81;100.00
25944;BME280;13742;49.306;8.636;2023-11-22T00:40:10;101090.67;;;6.69;100.00
25944;BME280;13742;49.306;8.636;2023-11-22T00:41:07;101087.63;;;6.67;100.00
25944;BME280;13742;49.306;8.636;2023-11-22T00:42:07;101091.86;;;6.67;100.00
25944;BME280;13742;49.306;8.636;2023-11-22T00:43:06;101096.73;;;6.61;100.00
25944;BME280;13742;49.306;8.636;2023-11-22T00:44:06;101098.23;;;6.57;100.00
25944;BME280;13742;49.306;8.636;2023-11-22T00:45:07;101098.90;;;6.47;100.00
25944;BME280;13742;49.306;8.636;2023-11-22T00:46:06;101100.73;;;6.52;100.00
25944;BME280;13742;49.306;8.636;2023-11-22T00:47:06;101102.55;;;6.57;100.00
25944;BME280;13742;49.306;8.636;2023-11-22T00:48:07;101099.95;;;6.53;100.00
25944;BME280;13742;49.306;8.636;2023-11-22T00:49:08;101107.58;;;6.47;100.00
25944;BME280;13742;49.306;8.636;2023-11-22T00:50:08;101106.00;;;6.49;100.00
25944;BME280;13742;49.306;8.636;2023-11-22T00:51:09;101107.19;;;6.46;100.00
25944;BME280;13742;49.306;8.636;2023-11-22T00:52:07;101118.93;;;6.43;100.00
25944;BME280;13742;49.306;8.636;2023-11-22T00:53:06;101119.22;;;6.37;100.00
25944;BME280;13742;49.306;8.636;2023-11-22T00:54:06;101118.64;;;6.38;100.00
25944;BME280;13742;49.306;8.636;2023-11-22T00:55:06;101115.58;;;6.42;100.00
25944;BME280;13742;49.306;8.636;2023-11-22T00:56:06;101119.70;;;6.30;100.00
25944;BME280;13742;49.306;8.636;2023-11-22T00:57:07;101118.68;;;6.33;100.00
25944;BME280;13742;49.306;8.636;2023-11-22T00:58:07;101122.92;;;6.26;100.00
25944;BME280;13742;49.306;8.636;2023-11-22T00:59:06;101121.80;;;6.31;100.00
25944;BME280;13742;49.306;8.636;2023-11-22T01:00:09;101126.73;;;6.29;100.00
25944;BME280;13742;49.306;8.636;2023-11-22T01:01:06;101126.58;;;6.26;100.00
25944;BME280;13742;49.306;8.636;2023-11-22T01:02:08;101133.11;;;6.28;100.00
25944;BME280;13742;49.306;8.636;2023-11-22T01:03:11;101132.91;;;6.25;100.00
25944;BME280;13742;49.306;8.636;2023-11-22T01:04:07;101136.09;;;6.15;100.00
25944;BME280;13742;49.306;8.636;2023-11-22T01:05:09;101138.31;;;6.12;100.00
25944;BME280;13742;49.306;8.636;2023-11-22T01:06:07;101138.80;;;6.15;99.48
25944;BME280;13742;49.306;8.636;2023-11-22T01:07:06;101141.91;;;6.12;99.04
25944;BME280;13742;49.306;8.636;2023-11-22T01:08:06;101144.63;;;6.14;99.93
25944;BME280;13742;49.306;8.636;2023-11-22T01:09:08;101142.51;;;6.10;100.00
25944;BME280;13742;49.306;8.636;2023-11-22T01:10:07;101144.38;;;6.03;100.00
25944;BME280;13742;49.306;8.636;2023-11-22T01:11:07;101143.58;;;6.02;100.00
25944;BME280;13742;49.306;8.636;2023-11-22T01:12:09;101144.59;;;6.08;100.00
25944;BME280;13742;49.306;8.636;2023-11-22T01:13:06;101146.61;;;6.05;98.57
25944;BME280;13742;49.306;8.636;2023-11-22T01:14:06;101144.40;;;6.01;98.44
25944;BME280;13742;49.306;8.636;2023-11-22T01:15:07;101142.20;;;6.03;98.21
25944;BME280;13742;49.306;8.636;2023-11-22T01:16:07;101147.35;;;6.01;99.02
25944;BME280;13742;49.306;8.636;2023-11-22T01:17:06;101143.89;;;6.06;99.40
25944;BME280;13742;49.306;8.636;2023-11-22T01:18:06;101143.13;;;6.08;99.38
25944;BME280;13742;49.306;8.636;2023-11-22T01:19:09;101145.09;;;6.13;100.00
25944;BME280;13742;49.306;8.636;2023-11-22T01:20:10;101143.34;;;6.12;100.00
25944;BME280;13742;49.306;8.636;2023-11-22T01:21:06;101145.63;;;6.16;100.00
25944;BME280;13742;49.306;8.636;2023-11-22T01:22:06;101148.14;;;6.09;100.00
25944;BME280;13742;49.306;8.636;2023-11-22T01:23:06;101149.23;;;6.05;100.00
25944;BME280;13742;49.306;8.636;2023-11-22T01:24:06;101151.22;;;6.09;100.00
25944;BME280;13742;49.306;8.636;2023-11-22T01:25:06;101152.34;;;6.08;100.00
25944;BME280;13742;49.306;8.636;2023-11-22T01:26:06;101150.92;;;6.09;100.00
25944;BME280;13742;49.306;8.636;2023-11-22T01:27:06;101158.07;;;5.97;100.00
25944;BME280;13742;49.306;8.636;2023-11-22T01:28:11;101157.57;;;5.97;100.00
25944;BME280;13742;49.306;8.636;2023-11-22T01:29:06;101159.38;;;5.94;100.00
25944;BME280;13742;49.306;8.636;2023-11-22T01:30:09;101157.19;;;5.98;100.00
25944;BME280;13742;49.306;8.636;2023-11-22T01:31:06;101161.88;;;6.00;100.00
25944;BME280;13742;49.306;8.636;2023-11-22T01:32:07;101162.70;;;5.94;100.00
25944;BME280;13742;49.306;8.636;2023-11-22T01:33:06;101159.31;;;5.99;100.00
25944;BME280;13742;49.306;8.636;2023-11-22T01:34:06;101154.45;;;6.00;100.00
25944;BME280;13742;49.306;8.636;2023-11-22T01:35:07;101153.66;;;6.02;100.00
25944;BME280;13742;49.306;8.636;2023-11-22T01:36:06;101153.84;;;5.97;100.00
25944;BME280;13742;49.306;8.636;2023-11-22T01:37:07;101153.25;;;5.99;100.00
25944;BME280;13742;49.306;8.636;2023-11-22T01:38:06;101154.39;;;5.99;100.00
25944;BME280;13742;49.306;8.636;2023-11-22T01:39:06;101150.19;;;5.98;100.00
25944;BME280;13742;49.306;8.636;2023-11-22T01:40:08;101152.11;;;5.92;100.00
25944;BME280;13742;49.306;8.636;2023-11-22T01:41:07;101154.30;;;5.91;99.57
25944;BME280;13742;49.306;8.636;2023-11-22T01:42:06;101153.92;;;5.88;99.55
25944;BME280;13742;49.306;8.636;2023-11-22T01:43:06;101153.69;;;5.87;99.75
25944;BME280;13742;49.306;8.636;2023-11-22T01:44:06;101160.80;;;5.80;99.70
25944;BME280;13742;49.306;8.636;2023-11-22T01:45:07;101163.40;;;5.75;100.00
25944;BME280;13742;49.306;8.636;2023-11-22T01:46:10;101166.60;;;5.72;100.00
25944;BME280;13742;49.306;8.636;2023-11-22T01:47:06;101165.83;;;5.80;100.00
25944;BME280;13742;49.306;8.636;2023-11-22T01:48:06;101169.76;;;5.84;100.00
25944;BME280;13742;49.306;8.636;2023-11-22T01:49:06;101171.30;;;5.89;100.00
25944;BME280;13742;49.306;8.636;2023-11-22T01:50:07;101168.98;;;5.89;100.00
25944;BME280;13742;49.306;8.636;2023-11-22T01:51:08;101170.14;;;5.92;100.00
25944;BME280;13742;49.306;8.636;2023-11-22T01:52:06;101175.88;;;5.92;100.00
25944;BME280;13742;49.306;8.636;2023-11-22T01:53:07;101177.80;;;5.74;100.00
25944;BME280;13742;49.306;8.636;2023-11-22T01:54:06;101181.25;;;5.65;100.00
25944;BME280;13742;49.306;8.636;2023-11-22T01:55:06;101183.14;;;5.62;100.00
25944;BME280;13742;49.306;8.636;2023-11-22T01:56:06;101184.84;;;5.64;100.00
25944;BME280;13742;49.306;8.636;2023-11-22T01:57:08;101186.65;;;5.56;100.00
25944;BME280;13742;49.306;8.636;2023-11-22T01:58:06;101191.41;;;5.48;100.00
25944;BME280;13742;49.306;8.636;2023-11-22T01:59:06;101190.95;;;5.56;100.00
25944;BME280;13742;49.306;8.636;2023-11-22T02:00:07;101194.95;;;5.53;100.00
25944;BME280;13742;49.306;8.636;2023-11-22T02:01:06;101194.02;;;5.49;100.00
25944;BME280;13742;49.306;8.636;2023-11-22T02:02:07;101194.67;;;5.49;100.00
25944;BME280;13742;49.306;8.636;2023-11-22T02:03:06;101192.55;;;5.42;100.00
25944;BME280;13742;49.306;8.636;2023-11-22T02:04:07;101194.38;;;5.31;100.00
25944;BME280;13742;49.306;8.636;2023-11-22T02:05:06;101195.34;;;5.24;100.00
25944;BME280;13742;49.306;8.636;2023-11-22T02:06:06;101198.03;;;5.18;100.00
25944;BME280;13742;49.306;8.636;2023-11-22T02:07:06;101202.13;;;5.18;100.00
25944;BME280;13742;49.306;8.636;2023-11-22T02:08:06;101198.87;;;5.15;100.00
25944;BME280;13742;49.306;8.636;2023-11-22T02:09:07;101198.30;;;5.16;100.00
25944;BME280;13742;49.306;8.636;2023-11-22T02:10:07;101198.98;;;5.08;100.00
25944;BME280;13742;49.306;8.636;2023-11-22T02:11:06;101200.27;;;5.14;100.00
25944;BME280;13742;49.306;8.636;2023-11-22T02:12:07;101196.83;;;5.19;100.00
25944;BME280;13742;49.306;8.636;2023-11-22T02:13:07;101198.48;;;5.18;100.00
25944;BME280;13742;49.306;8.636;2023-11-22T02:14:07;101201.88;;;5.23;100.00
25944;BME280;13742;49.306;8.636;2023-11-22T02:15:06;101199.64;;;5.25;100.00
25944;BME280;13742;49.306;8.636;2023-11-22T02:16:06;101203.33;;;5.20;100.00
25944;BME280;13742;49.306;8.636;2023-11-22T02:17:06;101202.13;;;5.17;100.00
25944;BME280;13742;49.306;8.636;2023-11-22T02:18:06;101201.47;;;5.14;100.00
25944;BME280;13742;49.306;8.636;2023-11-22T02:19:08;101207.50;;;5.21;100.00
25944;BME280;13742;49.306;8.636;2023-11-22T02:20:10;101204.09;;;5.17;100.00
25944;BME280;13742;49.306;8.636;2023-11-22T02:21:06;101211.09;;;5.16;100.00
25944;BME280;13742;49.306;8.636;2023-11-22T02:22:06;101213.38;;;5.19;100.00
25944;BME280;13742;49.306;8.636;2023-11-22T02:23:09;101215.65;;;5.24;100.00
25944;BME280;13742;49.306;8.636;2023-11-22T02:24:07;101217.64;;;5.22;100.00
25944;BME280;13742;49.306;8.636;2023-11-22T02:25:06;101222.24;;;5.11;100.00
25944;BME280;13742;49.306;8.636;2023-11-22T02:26:06;101217.67;;;5.00;100.00
25944;BME280;13742;49.306;8.636;2023-11-22T02:27:06;101225.16;;;4.96;100.00
25944;BME280;13742;49.306;8.636;2023-11-22T02:28:08;101220.83;;;4.95;100.00
25944;BME280;13742;49.306;8.636;2023-11-22T02:29:06;101222.72;;;4.99;100.00
25944;BME280;13742;49.306;8.636;2023-11-22T02:30:06;101223.13;;;4.98;100.00
25944;BME280;13742;49.306;8.636;2023-11-22T02:31:06;101224.27;;;4.93;100.00
25944;BME280;13742;49.306;8.636;2023-11-22T02:32:06;101230.09;;;4.92;100.00
25944;BME280;13742;49.306;8.636;2023-11-22T02:33:06;101234.84;;;4.93;100.00
25944;BME280;13742;49.306;8.636;2023-11-22T02:34:06;101233.63;;;4.92;100.00
25944;BME280;13742;49.306;8.636;2023-11-22T02:35:07;101234.52;;;4.97;100.00
25944;BME280;13742;49.306;8.636;2023-11-22T02:36:08;101234.08;;;4.91;100.00
25944;BME280;13742;49.306;8.636;2023-11-22T02:37:06;101241.61;;;4.90;100.00
25944;BME280;13742;49.306;8.636;2023-11-22T02:38:06;101243.88;;;4.87;100.00
25944;BME280;13742;49.306;8.636;2023-11-22T02:39:06;101249.23;;;4.94;100.00
25944;BME280;13742;49.306;8.636;2023-11-22T02:41:06;101253.91;;;4.88;100.00
25944;BME280;13742;49.306;8.636;2023-11-22T02:42:06;101253.29;;;4.82;100.00
25944;BME280;13742;49.306;8.636;2023-11-22T02:43:09;101258.38;;;4.79;100.00
25944;BME280;13742;49.306;8.636;2023-11-22T02:44:06;101255.48;;;4.84;100.00
25944;BME280;13742;49.306;8.636;2023-11-22T02:45:06;101258.86;;;4.88;100.00
25944;BME280;13742;49.306;8.636;2023-11-22T02:46:06;101265.73;;;4.85;100.00
25944;BME280;13742;49.306;8.636;2023-11-22T02:47:06;101268.37;;;4.90;100.00
25944;BME280;13742;49.306;8.636;2023-11-22T02:48:09;101266.97;;;4.90;100.00
25944;BME280;13742;49.306;8.636;2023-11-22T02:49:06;101272.53;;;4.90;100.00
25944;BME280;13742;49.306;8.636;2023-11-22T02:50:06;101270.61;;;4.89;100.00
25944;BME280;13742;49.306;8.636;2023-11-22T02:51:06;101268.22;;;4.93;100.00
25944;BME280;13742;49.306;8.636;2023-11-22T02:52:06;101271.27;;;4.92;100.00
25944;BME280;13742;49.306;8.636;2023-11-22T02:53:07;101270.59;;;4.93;100.00
25944;BME280;13742;49.306;8.636;2023-11-22T02:54:06;101275.48;;;4.95;100.00
25944;BME280;13742;49.306;8.636;2023-11-22T02:55:06;101273.69;;;4.95;100.00
25944;BME280;13742;49.306;8.636;2023-11-22T02:56:06;101279.83;;;4.88;100.00
25944;BME280;13742;49.306;8.636;2023-11-22T02:57:06;101267.39;;;4.89;100.00
25944;BME280;13742;49.306;8.636;2023-11-22T02:58:06;101272.15;;;4.93;100.00
25944;BME280;13742;49.306;8.636;2023-11-22T02:59:13;101271.42;;;4.81;100.00
25944;BME280;13742;49.306;8.636;2023-11-22T03:00:08;101266.25;;;4.82;100.00
25944;BME280;13742;49.306;8.636;2023-11-22T03:01:07;101268.10;;;4.81;100.00
25944;BME280;13742;49.306;8.636;2023-11-22T03:02:07;101263.94;;;4.85;100.00
25944;BME280;13742;49.306;8.636;2023-11-22T03:03:10;101266.38;;;4.83;100.00
25944;BME280;13742;49.306;8.636;2023-11-22T03:04:06;101273.75;;;4.87;100.00
25944;BME280;13742;49.306;8.636;2023-11-22T03:05:07;101276.67;;;4.78;100.00
25944;BME280;13742;49.306;8.636;2023-11-22T03:06:06;101278.61;;;4.70;99.87
25944;BME280;13742;49.306;8.636;2023-11-22T03:07:06;101277.80;;;4.81;100.00
25944;BME280;13742;49.306;8.636;2023-11-22T03:08:07;101275.59;;;4.74;100.00
25944;BME280;13742;49.306;8.636;2023-11-22T03:09:08;101269.59;;;4.72;100.00
25944;BME280;13742;49.306;8.636;2023-11-22T03:10:07;101271.06;;;4.73;99.94
25944;BME280;13742;49.306;8.636;2023-11-22T03:11:06;101265.67;;;4.72;99.77
25944;BME280;13742;49.306;8.636;2023-11-22T03:12:06;101267.64;;;4.77;100.00
25944;BME280;13742;49.306;8.636;2023-11-22T03:13:06;101266.42;;;4.70;99.86
25944;BME280;13742;49.306;8.636;2023-11-22T03:14:06;101264.63;;;4.70;99.79
25944;BME280;13742;49.306;8.636;2023-11-22T03:15:06;101266.50;;;4.58;99.19
25944;BME280;13742;49.306;8.636;2023-11-22T03:16:08;101267.47;;;4.46;98.70
25944;BME280;13742;49.306;8.636;2023-11-22T03:17:06;101271.39;;;4.46;98.94
25944;BME280;13742;49.306;8.636;2023-11-22T03:18:06;101271.94;;;4.37;99.06
25944;BME280;13742;49.306;8.636;2023-11-22T03:19:06;101277.09;;;4.36;98.90
25944;BME280;13742;49.306;8.636;2023-11-22T03:20:10;101275.83;;;4.36;98.84
25944;BME280;13742;49.306;8.636;2023-11-22T03:21:06;101278.00;;;4.32;98.88
25944;BME280;13742;49.306;8.636;2023-11-22T03:22:06;101275.98;;;4.37;99.41
25944;BME280;13742;49.306;8.636;2023-11-22T03:23:06;101273.94;;;4.44;99.73
25944;BME280;13742;49.306;8.636;2023-11-22T03:24:07;101283.67;;;4.43;99.34
25944;BME280;13742;49.306;8.636;2023-11-22T03:25:10;101283.13;;;4.47;99.63
25944;BME280;13742;49.306;8.636;2023-11-22T03:26:06;101284.30;;;4.33;98.96
25944;BME280;13742;49.306;8.636;2023-11-22T03:27:06;101286.59;;;4.25;98.19
25944;BME280;13742;49.306;8.636;2023-11-22T03:28:06;101289.69;;;4.25;98.19
25944;BME280;13742;49.306;8.636;2023-11-22T03:29:06;101289.73;;;4.22;97.88
25944;BME280;13742;49.306;8.636;2023-11-22T03:30:11;101290.41;;;4.19;97.31
25944;BME280;13742;49.306;8.636;2023-11-22T03:31:08;101291.65;;;4.16;96.71
25944;BME280;13742;49.306;8.636;2023-11-22T03:32:06;101297.56;;;4.20;97.46
25944;BME280;13742;49.306;8.636;2023-11-22T03:33:06;101299.41;;;4.17;97.26
25944;BME280;13742;49.306;8.636;2023-11-22T03:34:06;101303.09;;;4.25;97.75
25944;BME280;13742;49.306;8.636;2023-11-22T03:35:06;101306.52;;;4.27;97.94
25944;BME280;13742;49.306;8.636;2023-11-22T03:36:06;101310.63;;;4.30;98.07
25944;BME280;13742;49.306;8.636;2023-11-22T03:37:07;101314.47;;;4.31;97.95
25944;BME280;13742;49.306;8.636;2023-11-22T03:38:06;101317.16;;;4.33;97.75
25944;BME280;13742;49.306;8.636;2023-11-22T03:39:06;101319.36;;;4.35;97.63
25944;BME280;13742;49.306;8.636;2023-11-22T03:40:06;101324.27;;;4.32;96.89
25944;BME280;13742;49.306;8.636;2023-11-22T03:41:06;101324.73;;;4.29;96.53
25944;BME280;13742;49.306;8.636;2023-11-22T03:42:06;101324.76;;;4.34;97.04
25944;BME280;13742;49.306;8.636;2023-11-22T03:43:09;101325.66;;;4.32;96.91
25944;BME280;13742;49.306;8.636;2023-11-22T03:44:09;101319.88;;;4.30;96.36
25944;BME280;13742;49.306;8.636;2023-11-22T03:45:06;101317.41;;;4.21;95.81
25944;BME280;13742;49.306;8.636;2023-11-22T03:46:06;101320.22;;;4.24;96.27
25944;BME280;13742;49.306;8.636;2023-11-22T03:47:06;101323.73;;;4.26;96.41
25944;BME280;13742;49.306;8.636;2023-11-22T03:48:06;101325.51;;;4.30;96.64
25944;BME280;13742;49.306;8.636;2023-11-22T03:49:09;101332.45;;;4.31;96.49
25944;BME280;13742;49.306;8.636;2023-11-22T03:50:06;101334.75;;;4.29;96.39
25944;BME280;13742;49.306;8.636;2023-11-22T03:51:06;101336.30;;;4.31;96.33
25944;BME280;13742;49.306;8.636;2023-11-22T03:52:06;101337.06;;;4.33;96.21
25944;BME280;13742;49.306;8.636;2023-11-22T03:53:07;101338.06;;;4.16;94.94
25944;BME280;13742;49.306;8.636;2023-11-22T03:54:06;101334.34;;;4.05;94.90
25944;BME280;13742;49.306;8.636;2023-11-22T03:55:06;101337.05;;;4.02;94.87
25944;BME280;13742;49.306;8.636;2023-11-22T03:56:06;101338.58;;;3.95;94.72
25944;BME280;13742;49.306;8.636;2023-11-22T03:57:06;101343.88;;;3.98;94.88
25944;BME280;13742;49.306;8.636;2023-11-22T03:58:07;101343.04;;;4.06;95.57
25944;BME280;13742;49.306;8.636;2023-11-22T03:59:06;101341.28;;;4.05;95.59
25944;BME280;13742;49.306;8.636;2023-11-22T04:00:06;101342.69;;;3.98;94.89
25944;BME280;13742;49.306;8.636;2023-11-22T04:01:06;101339.42;;;4.00;95.15
25944;BME280;13742;49.306;8.636;2023-11-22T04:02:07;101339.99;;;4.01;95.27
25944;BME280;13742;49.306;8.636;2023-11-22T04:03:07;101339.25;;;4.02;95.33
25944;BME280;13742;49.306;8.636;2023-11-22T04:04:08;101337.48;;;4.04;95.41
25944;BME280;13742;49.306;8.636;2023-11-22T04:05:07;101335.24;;;4.05;95.50
25944;BME280;13742;49.306;8.636;2023-11-22T04:06:06;101334.45;;;4.08;95.73
25944;BME280;13742;49.306;8.636;2023-11-22T04:07:06;101334.48;;;4.11;96.15
25944;BME280;13742;49.306;8.636;2023-11-22T04:08:08;101339.70;;;4.16;96.50
25944;BME280;13742;49.306;8.636;2023-11-22T04:09:08;101339.56;;;4.19;96.60
25944;BME280;13742;49.306;8.636;2023-11-22T04:10:06;101337.33;;;4.19;96.50
25944;BME280;13742;49.306;8.636;2023-11-22T04:11:06;101344.88;;;4.20;96.16
25944;BME280;13742;49.306;8.636;2023-11-22T04:12:06;101346.67;;;4.21;96.19
25944;BME280;13742;49.306;8.636;2023-11-22T04:13:06;101347.03;;;4.24;96.30
25944;BME280;13742;49.306;8.636;2023-11-22T04:14:06;101347.19;;;4.24;95.81
25944;BME280;13742;49.306;8.636;2023-11-22T04:15:08;101352.80;;;4.24;95.58
25944;BME280;13742;49.306;8.636;2023-11-22T04:16:08;101353.70;;;4.21;94.96
25944;BME280;13742;49.306;8.636;2023-11-22T04:17:06;101353.48;;;4.23;95.37
25944;BME280;13742;49.306;8.636;2023-11-22T04:18:06;101355.41;;;4.25;95.61
25944;BME280;13742;49.306;8.636;2023-11-22T04:19:06;101359.08;;;4.27;95.87
25944;BME280;13742;49.306;8.636;2023-11-22T04:20:10;101362.66;;;4.29;95.75
25944;BME280;13742;49.306;8.636;2023-11-22T04:21:06;101358.34;;;4.27;95.28
25944;BME280;13742;49.306;8.636;2023-11-22T04:22:06;101365.65;;;4.28;95.46
25944;BME280;13742;49.306;8.636;2023-11-22T04:23:06;101363.80;;;4.29;95.13
25944;BME280;13742;49.306;8.636;2023-11-22T04:24:06;101363.33;;;4.26;94.51
25944;BME280;13742;49.306;8.636;2023-11-22T04:25:06;101363.86;;;4.25;94.32
25944;BME280;13742;49.306;8.636;2023-11-22T04:26:07;101362.97;;;4.24;94.13
25944;BME280;13742;49.306;8.636;2023-11-22T04:27:07;101367.25;;;4.27;94.51
25944;BME280;13742;49.306;8.636;2023-11-22T04:28:08;101375.23;;;4.22;93.65
25944;BME280;13742;49.306;8.636;2023-11-22T04:29:06;101375.55;;;4.23;93.83
25944;BME280;13742;49.306;8.636;2023-11-22T04:30:08;101374.71;;;4.19;93.20
25944;BME280;13742;49.306;8.636;2023-11-22T04:31:08;101379.53;;;4.17;93.12
25944;BME280;13742;49.306;8.636;2023-11-22T04:32:06;101387.13;;;4.19;93.39
25944;BME280;13742;49.306;8.636;2023-11-22T04:33:06;101392.98;;;4.16;93.17
25944;BME280;13742;49.306;8.636;2023-11-22T04:34:07;101398.23;;;4.10;92.90
25944;BME280;13742;49.306;8.636;2023-11-22T04:35:06;101398.43;;;4.10;92.89
25944;BME280;13742;49.306;8.636;2023-11-22T04:36:07;101397.50;;;4.06;92.94
25944;BME280;13742;49.306;8.636;2023-11-22T04:37:06;101401.28;;;3.96;92.41
25944;BME280;13742;49.306;8.636;2023-11-22T04:38:06;101405.49;;;3.88;92.66
25944;BME280;13742;49.306;8.636;2023-11-22T04:39:07;101409.86;;;3.89;93.16
25944;BME280;13742;49.306;8.636;2023-11-22T04:40:11;101416.31;;;3.87;93.25
25944;BME280;13742;49.306;8.636;2023-11-22T04:41:06;101421.80;;;3.81;93.45
25944;BME280;13742;49.306;8.636;2023-11-22T04:42:06;101420.41;;;3.69;92.78
25944;BME280;13742;49.306;8.636;2023-11-22T04:43:06;101421.72;;;3.73;92.99
25944;BME280;13742;49.306;8.636;2023-11-22T04:44:06;101420.62;;;3.74;93.07
25944;BME280;13742;49.306;8.636;2023-11-22T04:45:07;101421.92;;;3.74;92.93
25944;BME280;13742;49.306;8.636;2023-11-22T04:46:06;101428.33;;;3.77;93.30
25944;BME280;13742;49.306;8.636;2023-11-22T04:47:06;101432.91;;;3.75;92.83
25944;BME280;13742;49.306;8.636;2023-11-22T04:48:09;101432.63;;;3.77;93.19
25944;BME280;13742;49.306;8.636;2023-11-22T04:49:07;101431.06;;;3.78;93.38
25944;BME280;13742;49.306;8.636;2023-11-22T04:50:06;101434.20;;;3.79;93.30
25944;BME280;13742;49.306;8.636;2023-11-22T04:51:06;101437.36;;;3.78;93.18
25944;BME280;13742;49.306;8.636;2023-11-22T04:52:06;101437.19;;;3.79;93.17
25944;BME280;13742;49.306;8.636;2023-11-22T04:53:06;101440.50;;;3.69;92.29
25944;BME280;13742;49.306;8.636;2023-11-22T04:54:06;101439.19;;;3.70;92.70
25944;BME280;13742;49.306;8.636;2023-11-22T04:55:06;101439.11;;;3.73;93.04
25944;BME280;13742;49.306;8.636;2023-11-22T04:56:06;101439.11;;;3.77;93.39
25944;BME280;13742;49.306;8.636;2023-11-22T04:57:06;101441.40;;;3.68;92.76
25944;BME280;13742;49.306;8.636;2023-11-22T04:58:06;101444.98;;;3.63;92.77
25944;BME280;13742;49.306;8.636;2023-11-22T04:59:06;101444.75;;;3.66;93.01
25944;BME280;13742;49.306;8.636;2023-11-22T05:00:07;101445.63;;;3.53;92.86
25944;BME280;13742;49.306;8.636;2023-11-22T05:01:06;101450.64;;;3.46;93.41
25944;BME280;13742;49.306;8.636;2023-11-22T05:02:07;101452.19;;;3.37;93.98
25944;BME280;13742;49.306;8.636;2023-11-22T05:03:06;101450.78;;;3.33;94.04
25944;BME280;13742;49.306;8.636;2023-11-22T05:04:06;101449.49;;;3.18;94.12
25944;BME280;13742;49.306;8.636;2023-11-22T05:05:06;101450.47;;;3.19;94.62
25944;BME280;13742;49.306;8.636;2023-11-22T05:06:07;101449.66;;;3.21;95.06
25944;BME280;13742;49.306;8.636;2023-11-22T05:07:06;101456.19;;;3.21;95.04
25944;BME280;13742;49.306;8.636;2023-11-22T05:08:06;101448.50;;;3.14;94.72
25944;BME280;13742;49.306;8.636;2023-11-22T05:09:06;101446.55;;;3.18;95.21
25944;BME280;13742;49.306;8.636;2023-11-22T05:10:09;101448.84;;;3.20;95.47
25944;BME280;13742;49.306;8.636;2023-11-22T05:11:07;101454.88;;;3.19;95.45
25944;BME280;13742;49.306;8.636;2023-11-22T05:12:06;101448.83;;;3.12;95.44
25944;BME280;13742;49.306;8.636;2023-11-22T05:13:06;101452.70;;;3.15;95.68
25944;BME280;13742;49.306;8.636;2023-11-22T05:14:06;101452.27;;;3.20;95.89
25944;BME280;13742;49.306;8.636;2023-11-22T05:15:06;101450.79;;;3.15;95.54
25944;BME280;13742;49.306;8.636;2023-11-22T05:16:06;101452.56;;;3.22;95.75